sensor_id;sensor_type;location;lat;lon;timestamp;P1;durP1;ratioP1;P2;durP2;ratioP2
18893;SDS011;9579;49.488;8.226;2022-07-22T05:01:55;9.95;;;9.05;;
18893;SDS011;9579;49.488;8.226;2022-07-22T05:04:42;9.73;;;8.85;;
18893;SDS011;9579;49.488;8.226;2022-07-22T05:07:29;9.73;;;8.82;;
18893;SDS011;9579;49.488;8.226;2022-07-22T05:10:16;9.90;;;9.00;;
18893;SDS011;9579;49.488;8.226;2022-07-22T05:13:03;10.60;;;9.70;;
18893;SDS011;9579;49.488;8.226;2022-07-22T05:15:51;9.35;;;8.55;;
18893;SDS011;9579;49.488;8.226;2022-07-22T05:18:39;9.50;;;8.52;;
18893;SDS011;9579;49.488;8.226;2022-07-22T05:21:26;11.82;;;8.43;;
18893;SDS011;9579;49.488;8.226;2022-07-22T05:24:13;8.65;;;7.85;;
18893;SDS011;9579;49.488;8.226;2022-07-22T05:27:00;9.63;;;8.70;;
18893;SDS011;9579;49.488;8.226;2022-07-22T05:29:47;9.30;;;8.52;;
18893;SDS011;9579;49.488;8.226;2022-07-22T05:32:34;9.38;;;8.57;;
18893;SDS011;9579;49.488;8.226;2022-07-22T05:35:22;9.15;;;8.40;;
18893;SDS011;9579;49.488;8.226;2022-07-22T05:38:09;9.77;;;8.77;;
18893;SDS011;9579;49.488;8.226;2022-07-22T05:40:57;8.50;;;7.80;;
18893;SDS011;9579;49.488;8.226;2022-07-22T05:43:44;8.10;;;7.40;;
18893;SDS011;9579;49.488;8.226;2022-07-22T05:46:31;9.07;;;8.32;;
18893;SDS011;9579;49.488;8.226;2022-07-22T05:49:18;8.85;;;8.13;;
18893;SDS011;9579;49.488;8.226;2022-07-22T05:52:08;8.50;;;7.70;;
18893;SDS011;9579;49.488;8.226;2022-07-22T05:54:55;7.82;;;7.18;;
18893;SDS011;9579;49.488;8.226;2022-07-22T05:57:45;9.00;;;8.10;;
18893;SDS011;9579;49.488;8.226;2022-07-22T06:00:32;8.98;;;8.05;;
18893;SDS011;9579;49.488;8.226;2022-07-22T06:03:20;8.15;;;7.45;;
18893;SDS011;9579;49.488;8.226;2022-07-22T06:06:07;8.75;;;7.95;;
18893;SDS011;9579;49.488;8.226;2022-07-22T06:08:55;7.90;;;7.30;;
18893;SDS011;9579;49.488;8.226;2022-07-22T06:11:42;8.15;;;7.55;;
18893;SDS011;9579;49.488;8.226;2022-07-22T06:14:29;8.45;;;7.78;;
18893;SDS011;9579;49.488;8.226;2022-07-22T06:17:16;9.20;;;7.60;;
18893;SDS011;9579;49.488;8.226;2022-07-22T06:20:04;6.25;;;5.65;;
18893;SDS011;9579;49.488;8.226;2022-07-22T06:22:52;8.60;;;7.88;;
18893;SDS011;9579;49.488;8.226;2022-07-22T06:25:40;7.90;;;7.10;;
18893;SDS011;9579;49.488;8.226;2022-07-22T06:28:27;8.20;;;7.50;;
18893;SDS011;9579;49.488;8.226;2022-07-22T06:31:15;8.82;;;8.07;;
18893;SDS011;9579;49.488;8.226;2022-07-22T06:34:02;7.80;;;7.07;;
18893;SDS011;9579;49.488;8.226;2022-07-22T06:36:50;8.63;;;7.82;;
18893;SDS011;9579;49.488;8.226;2022-07-22T06:39:38;7.35;;;6.65;;
18893;SDS011;9579;49.488;8.226;2022-07-22T06:42:26;7.85;;;7.15;;
18893;SDS011;9579;49.488;8.226;2022-07-22T06:45:13;7.45;;;6.85;;
18893;SDS011;9579;49.488;8.226;2022-07-22T06:48:00;8.85;;;7.95;;
18893;SDS011;9579;49.488;8.226;2022-07-22T06:50:47;8.02;;;7.32;;
18893;SDS011;9579;49.488;8.226;2022-07-22T06:53:34;7.88;;;7.10;;
18893;SDS011;9579;49.488;8.226;2022-07-22T06:56:21;7.50;;;6.90;;
18893;SDS011;9579;49.488;8.226;2022-07-22T06:59:10;9.35;;;8.60;;
18893;SDS011;9579;49.488;8.226;2022-07-22T07:01:57;7.35;;;6.75;;
18893;SDS011;9579;49.488;8.226;2022-07-22T07:04:44;9.43;;;8.63;;
18893;SDS011;9579;49.488;8.226;2022-07-22T07:07:31;7.30;;;6.70;;
18893;SDS011;9579;49.488;8.226;2022-07-22T07:10:18;7.03;;;6.32;;
18893;SDS011;9579;49.488;8.226;2022-07-22T07:13:05;8.45;;;7.75;;
18893;SDS011;9579;49.488;8.226;2022-07-22T07:15:54;7.07;;;6.38;;
18893;SDS011;9579;49.488;8.226;2022-07-22T07:18:41;7.57;;;6.88;;
18893;SDS011;9579;49.488;8.226;2022-07-22T07:21:28;7.05;;;6.45;;
18893;SDS011;9579;49.488;8.226;2022-07-22T07:24:15;7.68;;;6.97;;
18893;SDS011;9579;49.488;8.226;2022-07-22T07:27:02;7.93;;;7.13;;
18893;SDS011;9579;49.488;8.226;2022-07-22T07:29:50;6.22;;;5.72;;
18893;SDS011;9579;49.488;8.226;2022-07-22T07:32:38;6.95;;;6.13;;
18893;SDS011;9579;49.488;8.226;2022-07-22T07:35:25;7.35;;;6.75;;
18893;SDS011;9579;49.488;8.226;2022-07-22T07:38:12;6.55;;;5.95;;
18893;SDS011;9579;49.488;8.226;2022-07-22T07:41:00;7.00;;;6.40;;
18893;SDS011;9579;49.488;8.226;2022-07-22T07:43:47;6.57;;;6.07;;
18893;SDS011;9579;49.488;8.226;2022-07-22T07:46:34;6.65;;;6.13;;
18893;SDS011;9579;49.488;8.226;2022-07-22T07:49:22;7.25;;;6.47;;
18893;SDS011;9579;49.488;8.226;2022-07-22T07:52:09;6.80;;;6.20;;
18893;SDS011;9579;49.488;8.226;2022-07-22T07:54:57;7.47;;;6.82;;
18893;SDS011;9579;49.488;8.226;2022-07-22T07:57:44;6.53;;;6.03;;
18893;SDS011;9579;49.488;8.226;2022-07-22T08:00:34;8.18;;;7.32;;
18893;SDS011;9579;49.488;8.226;2022-07-22T08:03:22;8.68;;;6.85;;
18893;SDS011;9579;49.488;8.226;2022-07-22T08:06:10;6.75;;;6.15;;
18893;SDS011;9579;49.488;8.226;2022-07-22T08:08:57;7.82;;;7.20;;
18893;SDS011;9579;49.488;8.226;2022-07-22T08:11:44;6.78;;;6.20;;
18893;SDS011;9579;49.488;8.226;2022-07-22T08:14:31;6.82;;;6.22;;
18893;SDS011;9579;49.488;8.226;2022-07-22T08:17:18;7.72;;;7.10;;
18893;SDS011;9579;49.488;8.226;2022-07-22T08:20:06;7.72;;;7.03;;
18893;SDS011;9579;49.488;8.226;2022-07-22T08:22:55;7.60;;;6.90;;
18893;SDS011;9579;49.488;8.226;2022-07-22T08:25:42;6.70;;;6.07;;
18893;SDS011;9579;49.488;8.226;2022-07-22T08:28:29;7.35;;;6.72;;
18893;SDS011;9579;49.488;8.226;2022-07-22T08:31:16;7.38;;;6.78;;
18893;SDS011;9579;49.488;8.226;2022-07-22T08:34:04;7.43;;;6.80;;
18893;SDS011;9579;49.488;8.226;2022-07-22T08:36:51;6.45;;;5.95;;
18893;SDS011;9579;49.488;8.226;2022-07-22T08:39:39;7.05;;;6.50;;
18893;SDS011;9579;49.488;8.226;2022-07-22T08:42:27;7.13;;;6.53;;
18893;SDS011;9579;49.488;8.226;2022-07-22T08:45:14;6.70;;;6.20;;
18893;SDS011;9579;49.488;8.226;2022-07-22T08:48:02;7.32;;;6.70;;
18893;SDS011;9579;49.488;8.226;2022-07-22T08:50:50;7.55;;;6.85;;
18893;SDS011;9579;49.488;8.226;2022-07-22T08:53:37;6.43;;;5.85;;
18893;SDS011;9579;49.488;8.226;2022-07-22T08:56:26;7.40;;;6.70;;
18893;SDS011;9579;49.488;8.226;2022-07-22T08:59:13;7.07;;;6.47;;
18893;SDS011;9579;49.488;8.226;2022-07-22T09:02:00;7.80;;;7.10;;
18893;SDS011;9579;49.488;8.226;2022-07-22T09:04:49;6.75;;;6.15;;
18893;SDS011;9579;49.488;8.226;2022-07-22T09:07:39;8.20;;;7.50;;
18893;SDS011;9579;49.488;8.226;2022-07-22T09:10:30;7.18;;;6.57;;
18893;SDS011;9579;49.488;8.226;2022-07-22T09:13:19;7.40;;;6.80;;
18893;SDS011;9579;49.488;8.226;2022-07-22T09:16:06;7.53;;;6.80;;
18893;SDS011;9579;49.488;8.226;2022-07-22T09:18:53;6.30;;;5.80;;
18893;SDS011;9579;49.488;8.226;2022-07-22T09:21:41;8.40;;;7.60;;
18893;SDS011;9579;49.488;8.226;2022-07-22T09:24:33;7.07;;;6.47;;
18893;SDS011;9579;49.488;8.226;2022-07-22T09:27:22;6.95;;;6.45;;
18893;SDS011;9579;49.488;8.226;2022-07-22T09:30:13;7.22;;;6.63;;
18893;SDS011;9579;49.488;8.226;2022-07-22T09:33:01;7.32;;;6.72;;
18893;SDS011;9579;49.488;8.226;2022-07-22T09:35:49;7.50;;;6.90;;
18893;SDS011;9579;49.488;8.226;2022-07-22T09:38:36;7.55;;;6.90;;
18893;SDS011;9579;49.488;8.226;2022-07-22T09:41:24;7.35;;;6.65;;
18893;SDS011;9579;49.488;8.226;2022-07-22T09:44:20;6.47;;;5.97;;
18893;SDS011;9579;49.488;8.226;2022-07-22T09:47:12;7.03;;;6.53;;
18893;SDS011;9579;49.488;8.226;2022-07-22T09:50:15;7.80;;;7.10;;
18893;SDS011;9579;49.488;8.226;2022-07-22T09:53:03;7.35;;;6.65;;
18893;SDS011;9579;49.488;8.226;2022-07-22T09:55:50;8.23;;;7.43;;
18893;SDS011;9579;49.488;8.226;2022-07-22T09:58:37;9.07;;;8.27;;
18893;SDS011;9579;49.488;8.226;2022-07-22T10:01:24;9.43;;;8.52;;
18893;SDS011;9579;49.488;8.226;2022-07-22T10:04:13;11.85;;;10.57;;
18893;SDS011;9579;49.488;8.226;2022-07-22T10:07:01;9.10;;;8.20;;
18893;SDS011;9579;49.488;8.226;2022-07-22T10:09:49;8.23;;;7.25;;
18893;SDS011;9579;49.488;8.226;2022-07-22T10:12:38;7.78;;;7.00;;
18893;SDS011;9579;49.488;8.226;2022-07-22T10:15:26;6.55;;;6.05;;
18893;SDS011;9579;49.488;8.226;2022-07-22T10:18:15;7.38;;;6.75;;
18893;SDS011;9579;49.488;8.226;2022-07-22T10:21:06;8.00;;;7.20;;
18893;SDS011;9579;49.488;8.226;2022-07-22T10:24:10;7.95;;;7.25;;
18893;SDS011;9579;49.488;8.226;2022-07-22T10:26:59;7.63;;;6.85;;
18893;SDS011;9579;49.488;8.226;2022-07-22T10:29:47;6.88;;;6.28;;
18893;SDS011;9579;49.488;8.226;2022-07-22T10:32:35;7.13;;;6.53;;
18893;SDS011;9579;49.488;8.226;2022-07-22T10:35:22;6.93;;;6.43;;
18893;SDS011;9579;49.488;8.226;2022-07-22T10:38:11;7.40;;;6.75;;
18893;SDS011;9579;49.488;8.226;2022-07-22T10:41:00;7.55;;;6.82;;
18893;SDS011;9579;49.488;8.226;2022-07-22T10:43:48;7.32;;;6.82;;
18893;SDS011;9579;49.488;8.226;2022-07-22T10:46:48;8.65;;;7.75;;
18893;SDS011;9579;49.488;8.226;2022-07-22T10:49:37;7.93;;;7.13;;
18893;SDS011;9579;49.488;8.226;2022-07-22T10:52:32;7.25;;;6.65;;
18893;SDS011;9579;49.488;8.226;2022-07-22T10:55:22;7.30;;;6.70;;
18893;SDS011;9579;49.488;8.226;2022-07-22T11:01:41;7.28;;;6.63;;
18893;SDS011;9579;49.488;8.226;2022-07-22T11:04:31;8.35;;;7.65;;
18893;SDS011;9579;49.488;8.226;2022-07-22T11:07:19;7.88;;;7.10;;
18893;SDS011;9579;49.488;8.226;2022-07-22T11:10:10;7.40;;;6.70;;
18893;SDS011;9579;49.488;8.226;2022-07-22T11:13:00;7.78;;;7.03;;
18893;SDS011;9579;49.488;8.226;2022-07-22T11:15:47;7.50;;;6.80;;
18893;SDS011;9579;49.488;8.226;2022-07-22T11:18:43;6.90;;;6.35;;
18893;SDS011;9579;49.488;8.226;2022-07-22T11:21:34;7.50;;;6.80;;
18893;SDS011;9579;49.488;8.226;2022-07-22T11:24:22;7.13;;;6.47;;
18893;SDS011;9579;49.488;8.226;2022-07-22T11:27:13;7.68;;;7.03;;
18893;SDS011;9579;49.488;8.226;2022-07-22T11:30:03;7.90;;;7.10;;
18893;SDS011;9579;49.488;8.226;2022-07-22T11:32:52;8.10;;;7.40;;
18893;SDS011;9579;49.488;8.226;2022-07-22T11:35:40;7.10;;;6.50;;
18893;SDS011;9579;49.488;8.226;2022-07-22T11:38:57;7.38;;;6.75;;
18893;SDS011;9579;49.488;8.226;2022-07-22T11:41:52;7.55;;;6.95;;
18893;SDS011;9579;49.488;8.226;2022-07-22T11:45:08;7.55;;;6.90;;
18893;SDS011;9579;49.488;8.226;2022-07-22T11:52:16;7.40;;;6.80;;
18893;SDS011;9579;49.488;8.226;2022-07-22T12:00:15;7.30;;;6.60;;
18893;SDS011;9579;49.488;8.226;2022-07-22T12:13:21;7.38;;;6.78;;
18893;SDS011;9579;49.488;8.226;2022-07-22T12:16:17;6.93;;;6.43;;
18893;SDS011;9579;49.488;8.226;2022-07-22T12:19:11;7.55;;;6.80;;
18893;SDS011;9579;49.488;8.226;2022-07-22T12:22:01;8.05;;;7.10;;
18893;SDS011;9579;49.488;8.226;2022-07-22T12:24:57;6.60;;;6.10;;
18893;SDS011;9579;49.488;8.226;2022-07-22T12:27:58;7.50;;;6.82;;
18893;SDS011;9579;49.488;8.226;2022-07-22T12:30:47;7.70;;;6.72;;
18893;SDS011;9579;49.488;8.226;2022-07-22T12:33:34;6.95;;;6.25;;
18893;SDS011;9579;49.488;8.226;2022-07-22T12:36:22;6.43;;;5.93;;
18893;SDS011;9579;49.488;8.226;2022-07-22T12:39:21;6.63;;;6.03;;
18893;SDS011;9579;49.488;8.226;2022-07-22T12:42:15;7.22;;;6.63;;
18893;SDS011;9579;49.488;8.226;2022-07-22T12:45:04;7.00;;;6.40;;
18893;SDS011;9579;49.488;8.226;2022-07-22T12:47:53;6.25;;;5.75;;
18893;SDS011;9579;49.488;8.226;2022-07-22T12:50:43;6.97;;;6.30;;
18893;SDS011;9579;49.488;8.226;2022-07-22T12:53:41;6.30;;;5.85;;
18893;SDS011;9579;49.488;8.226;2022-07-22T12:56:29;7.15;;;6.55;;
18893;SDS011;9579;49.488;8.226;2022-07-22T12:59:18;6.15;;;5.60;;
18893;SDS011;9579;49.488;8.226;2022-07-22T13:02:06;6.07;;;5.55;;
18893;SDS011;9579;49.488;8.226;2022-07-22T13:04:53;7.00;;;6.40;;
18893;SDS011;9579;49.488;8.226;2022-07-22T13:07:40;5.78;;;5.38;;
18893;SDS011;9579;49.488;8.226;2022-07-22T13:13:36;6.60;;;6.00;;
18893;SDS011;9579;49.488;8.226;2022-07-22T13:16:23;6.47;;;5.95;;
18893;SDS011;9579;49.488;8.226;2022-07-22T13:19:10;7.43;;;6.70;;
18893;SDS011;9579;49.488;8.226;2022-07-22T13:21:58;6.35;;;5.90;;
18893;SDS011;9579;49.488;8.226;2022-07-22T13:24:45;6.90;;;6.30;;
18893;SDS011;9579;49.488;8.226;2022-07-22T13:27:32;6.35;;;5.85;;
18893;SDS011;9579;49.488;8.226;2022-07-22T13:30:21;6.35;;;5.85;;
18893;SDS011;9579;49.488;8.226;2022-07-22T13:33:09;6.75;;;6.13;;
18893;SDS011;9579;49.488;8.226;2022-07-22T13:35:56;7.18;;;6.47;;
18893;SDS011;9579;49.488;8.226;2022-07-22T13:38:43;6.70;;;6.07;;
18893;SDS011;9579;49.488;8.226;2022-07-22T13:41:32;6.22;;;5.82;;
18893;SDS011;9579;49.488;8.226;2022-07-22T13:44:19;7.30;;;6.53;;
18893;SDS011;9579;49.488;8.226;2022-07-22T13:47:09;6.05;;;5.55;;
18893;SDS011;9579;49.488;8.226;2022-07-22T13:49:56;5.78;;;5.38;;
18893;SDS011;9579;49.488;8.226;2022-07-22T13:52:43;5.78;;;5.38;;
18893;SDS011;9579;49.488;8.226;2022-07-22T13:55:32;6.72;;;6.07;;
18893;SDS011;9579;49.488;8.226;2022-07-22T13:58:19;6.32;;;5.82;;
18893;SDS011;9579;49.488;8.226;2022-07-22T14:01:07;6.60;;;6.10;;
18893;SDS011;9579;49.488;8.226;2022-07-22T14:03:56;6.45;;;5.95;;
18893;SDS011;9579;49.488;8.226;2022-07-22T14:07:01;6.68;;;6.18;;
18893;SDS011;9579;49.488;8.226;2022-07-22T14:09:54;6.53;;;6.05;;
18893;SDS011;9579;49.488;8.226;2022-07-22T14:16:49;6.60;;;6.10;;
18893;SDS011;9579;49.488;8.226;2022-07-22T14:23:29;7.10;;;6.45;;
18893;SDS011;9579;49.488;8.226;2022-07-22T14:26:37;5.93;;;5.38;;
18893;SDS011;9579;49.488;8.226;2022-07-22T14:29:27;6.25;;;5.85;;
18893;SDS011;9579;49.488;8.226;2022-07-22T14:36:24;6.38;;;5.78;;
18893;SDS011;9579;49.488;8.226;2022-07-22T14:39:54;6.20;;;5.80;;
18893;SDS011;9579;49.488;8.226;2022-07-22T14:46:34;6.60;;;6.07;;
18893;SDS011;9579;49.488;8.226;2022-07-22T14:56:14;6.45;;;5.95;;
18893;SDS011;9579;49.488;8.226;2022-07-22T14:59:17;6.55;;;6.13;;
18893;SDS011;9579;49.488;8.226;2022-07-22T15:02:21;6.20;;;5.72;;
18893;SDS011;9579;49.488;8.226;2022-07-22T15:09:02;6.28;;;5.88;;
18893;SDS011;9579;49.488;8.226;2022-07-22T15:12:22;6.57;;;6.07;;
18893;SDS011;9579;49.488;8.226;2022-07-22T15:15:09;6.88;;;6.25;;
18893;SDS011;9579;49.488;8.226;2022-07-22T15:18:02;7.05;;;6.18;;
18893;SDS011;9579;49.488;8.226;2022-07-22T15:20:50;6.20;;;5.80;;
18893;SDS011;9579;49.488;8.226;2022-07-22T15:23:42;6.63;;;6.22;;
18893;SDS011;9579;49.488;8.226;2022-07-22T15:26:32;6.47;;;5.97;;
18893;SDS011;9579;49.488;8.226;2022-07-22T15:29:41;6.97;;;6.38;;
18893;SDS011;9579;49.488;8.226;2022-07-22T15:32:46;6.60;;;6.10;;
18893;SDS011;9579;49.488;8.226;2022-07-22T15:35:34;6.35;;;5.85;;
18893;SDS011;9579;49.488;8.226;2022-07-22T15:38:21;6.60;;;6.10;;
18893;SDS011;9579;49.488;8.226;2022-07-22T15:41:08;6.47;;;6.00;;
18893;SDS011;9579;49.488;8.226;2022-07-22T15:43:57;7.25;;;6.65;;
18893;SDS011;9579;49.488;8.226;2022-07-22T15:46:46;6.68;;;6.13;;
18893;SDS011;9579;49.488;8.226;2022-07-22T15:49:33;6.35;;;5.82;;
18893;SDS011;9579;49.488;8.226;2022-07-22T15:52:20;6.28;;;5.78;;
18893;SDS011;9579;49.488;8.226;2022-07-22T15:55:08;6.22;;;5.80;;
18893;SDS011;9579;49.488;8.226;2022-07-22T15:57:55;6.25;;;5.75;;
18893;SDS011;9579;49.488;8.226;2022-07-22T16:01:00;6.20;;;5.72;;
18893;SDS011;9579;49.488;8.226;2022-07-22T16:03:48;6.70;;;6.20;;
18893;SDS011;9579;49.488;8.226;2022-07-22T16:06:35;6.68;;;6.18;;
18893;SDS011;9579;49.488;8.226;2022-07-22T16:09:22;6.35;;;5.95;;
18893;SDS011;9579;49.488;8.226;2022-07-22T16:12:09;6.38;;;5.88;;
18893;SDS011;9579;49.488;8.226;2022-07-22T16:14:57;6.28;;;5.78;;
18893;SDS011;9579;49.488;8.226;2022-07-22T16:17:44;6.75;;;6.25;;
18893;SDS011;9579;49.488;8.226;2022-07-22T16:20:32;6.72;;;6.22;;
18893;SDS011;9579;49.488;8.226;2022-07-22T16:23:21;6.57;;;6.07;;
18893;SDS011;9579;49.488;8.226;2022-07-22T16:26:08;6.47;;;5.97;;
18893;SDS011;9579;49.488;8.226;2022-07-22T16:28:55;6.68;;;6.07;;
18893;SDS011;9579;49.488;8.226;2022-07-22T16:31:42;6.72;;;6.13;;
18893;SDS011;9579;49.488;8.226;2022-07-22T16:34:31;6.43;;;5.97;;
18893;SDS011;9579;49.488;8.226;2022-07-22T16:37:19;6.50;;;6.00;;
18893;SDS011;9579;49.488;8.226;2022-07-22T16:40:08;6.72;;;6.10;;
18893;SDS011;9579;49.488;8.226;2022-07-22T16:42:56;7.70;;;7.10;;
18893;SDS011;9579;49.488;8.226;2022-07-22T16:45:44;11.70;;;10.70;;
18893;SDS011;9579;49.488;8.226;2022-07-22T16:48:31;7.30;;;6.80;;
18893;SDS011;9579;49.488;8.226;2022-07-22T16:51:18;7.30;;;6.80;;
18893;SDS011;9579;49.488;8.226;2022-07-22T16:54:06;5.97;;;5.47;;
18893;SDS011;9579;49.488;8.226;2022-07-22T16:56:53;6.43;;;6.00;;
18893;SDS011;9579;49.488;8.226;2022-07-22T16:59:40;6.55;;;6.05;;
18893;SDS011;9579;49.488;8.226;2022-07-22T17:02:27;6.25;;;5.85;;
18893;SDS011;9579;49.488;8.226;2022-07-22T17:05:14;6.28;;;5.88;;
18893;SDS011;9579;49.488;8.226;2022-07-22T17:08:02;6.72;;;6.10;;
18893;SDS011;9579;49.488;8.226;2022-07-22T17:10:50;6.35;;;5.85;;
18893;SDS011;9579;49.488;8.226;2022-07-22T17:13:37;6.55;;;6.05;;
18893;SDS011;9579;49.488;8.226;2022-07-22T17:16:25;6.53;;;6.03;;
18893;SDS011;9579;49.488;8.226;2022-07-22T17:19:13;5.97;;;5.57;;
18893;SDS011;9579;49.488;8.226;2022-07-22T17:22:00;6.18;;;5.68;;
18893;SDS011;9579;49.488;8.226;2022-07-22T17:24:47;6.43;;;5.93;;
18893;SDS011;9579;49.488;8.226;2022-07-22T17:27:35;6.38;;;5.88;;
18893;SDS011;9579;49.488;8.226;2022-07-22T17:30:22;6.55;;;6.00;;
18893;SDS011;9579;49.488;8.226;2022-07-22T17:33:09;6.53;;;6.05;;
18893;SDS011;9579;49.488;8.226;2022-07-22T17:35:56;6.43;;;5.93;;
18893;SDS011;9579;49.488;8.226;2022-07-22T17:38:43;6.75;;;6.28;;
18893;SDS011;9579;49.488;8.226;2022-07-22T17:41:31;6.40;;;5.90;;
18893;SDS011;9579;49.488;8.226;2022-07-22T17:44:19;6.50;;;6.05;;
18893;SDS011;9579;49.488;8.226;2022-07-22T17:47:06;6.57;;;6.07;;
18893;SDS011;9579;49.488;8.226;2022-07-22T17:49:53;6.50;;;5.90;;
18893;SDS011;9579;49.488;8.226;2022-07-22T17:52:40;6.07;;;5.57;;
18893;SDS011;9579;49.488;8.226;2022-07-22T17:55:27;6.13;;;5.60;;
18893;SDS011;9579;49.488;8.226;2022-07-22T17:58:14;6.45;;;5.90;;
18893;SDS011;9579;49.488;8.226;2022-07-22T18:01:03;5.95;;;5.38;;
18893;SDS011;9579;49.488;8.226;2022-07-22T18:03:50;6.28;;;5.78;;
18893;SDS011;9579;49.488;8.226;2022-07-22T18:06:38;6.10;;;5.60;;
18893;SDS011;9579;49.488;8.226;2022-07-22T18:09:26;6.05;;;5.55;;
18893;SDS011;9579;49.488;8.226;2022-07-22T18:12:13;6.40;;;5.90;;
18893;SDS011;9579;49.488;8.226;2022-07-22T18:15:00;6.15;;;5.65;;
18893;SDS011;9579;49.488;8.226;2022-07-22T18:17:49;6.05;;;5.55;;
18893;SDS011;9579;49.488;8.226;2022-07-22T18:20:36;6.35;;;5.78;;
18893;SDS011;9579;49.488;8.226;2022-07-22T18:23:23;6.32;;;5.88;;
18893;SDS011;9579;49.488;8.226;2022-07-22T18:26:10;7.28;;;6.60;;
18893;SDS011;9579;49.488;8.226;2022-07-22T18:28:57;5.93;;;5.43;;
18893;SDS011;9579;49.488;8.226;2022-07-22T18:31:44;6.35;;;5.85;;
18893;SDS011;9579;49.488;8.226;2022-07-22T18:34:33;6.20;;;5.68;;
18893;SDS011;9579;49.488;8.226;2022-07-22T18:37:20;6.70;;;6.10;;
18893;SDS011;9579;49.488;8.226;2022-07-22T18:40:07;6.82;;;6.32;;
18893;SDS011;9579;49.488;8.226;2022-07-22T18:42:55;6.80;;;6.28;;
18893;SDS011;9579;49.488;8.226;2022-07-22T18:45:42;6.55;;;6.10;;
18893;SDS011;9579;49.488;8.226;2022-07-22T18:48:29;5.97;;;5.57;;
18893;SDS011;9579;49.488;8.226;2022-07-22T18:51:35;7.10;;;6.50;;
18893;SDS011;9579;49.488;8.226;2022-07-22T18:54:23;6.45;;;5.95;;
18893;SDS011;9579;49.488;8.226;2022-07-22T18:57:10;6.70;;;6.20;;
18893;SDS011;9579;49.488;8.226;2022-07-22T18:59:57;6.50;;;6.00;;
18893;SDS011;9579;49.488;8.226;2022-07-22T19:02:45;6.15;;;5.75;;
18893;SDS011;9579;49.488;8.226;2022-07-22T19:05:36;6.55;;;6.00;;
18893;SDS011;9579;49.488;8.226;2022-07-22T19:08:25;6.72;;;6.13;;
18893;SDS011;9579;49.488;8.226;2022-07-22T19:11:12;6.72;;;6.18;;
18893;SDS011;9579;49.488;8.226;2022-07-22T19:13:59;6.60;;;6.00;;
18893;SDS011;9579;49.488;8.226;2022-07-22T19:16:47;6.68;;;6.18;;
18893;SDS011;9579;49.488;8.226;2022-07-22T19:19:34;6.35;;;5.85;;
18893;SDS011;9579;49.488;8.226;2022-07-22T19:22:21;6.60;;;6.10;;
18893;SDS011;9579;49.488;8.226;2022-07-22T19:25:09;7.03;;;6.50;;
18893;SDS011;9579;49.488;8.226;2022-07-22T19:27:57;7.15;;;6.55;;
18893;SDS011;9579;49.488;8.226;2022-07-22T19:30:44;6.60;;;6.10;;
18893;SDS011;9579;49.488;8.226;2022-07-22T19:33:31;7.25;;;6.65;;
18893;SDS011;9579;49.488;8.226;2022-07-22T19:36:18;7.20;;;6.63;;
18893;SDS011;9579;49.488;8.226;2022-07-22T19:39:05;6.70;;;6.10;;
18893;SDS011;9579;49.488;8.226;2022-07-22T19:41:54;6.65;;;6.13;;
18893;SDS011;9579;49.488;8.226;2022-07-22T19:44:41;6.68;;;6.13;;
18893;SDS011;9579;49.488;8.226;2022-07-22T19:47:28;7.95;;;7.07;;
18893;SDS011;9579;49.488;8.226;2022-07-22T19:50:15;7.07;;;6.35;;
18893;SDS011;9579;49.488;8.226;2022-07-22T19:53:03;7.05;;;6.45;;
18893;SDS011;9579;49.488;8.226;2022-07-22T19:55:50;7.03;;;6.32;;
18893;SDS011;9579;49.488;8.226;2022-07-22T19:58:38;7.25;;;6.65;;
18893;SDS011;9579;49.488;8.226;2022-07-22T20:01:25;7.43;;;6.72;;
18893;SDS011;9579;49.488;8.226;2022-07-22T20:04:12;7.38;;;6.70;;
18893;SDS011;9579;49.488;8.226;2022-07-22T20:06:59;7.55;;;6.80;;
18893;SDS011;9579;49.488;8.226;2022-07-22T20:09:47;7.00;;;6.50;;
18893;SDS011;9579;49.488;8.226;2022-07-22T20:12:34;7.75;;;7.07;;
18893;SDS011;9579;49.488;8.226;2022-07-22T20:15:22;7.57;;;6.97;;
18893;SDS011;9579;49.488;8.226;2022-07-22T20:18:09;7.20;;;6.70;;
18893;SDS011;9579;49.488;8.226;2022-07-22T20:20:56;8.25;;;6.90;;
18893;SDS011;9579;49.488;8.226;2022-07-22T20:23:43;7.80;;;7.13;;
18893;SDS011;9579;49.488;8.226;2022-07-22T20:26:33;7.75;;;7.03;;
18893;SDS011;9579;49.488;8.226;2022-07-22T20:29:20;7.68;;;7.07;;
18893;SDS011;9579;49.488;8.226;2022-07-22T20:32:08;7.50;;;6.90;;
18893;SDS011;9579;49.488;8.226;2022-07-22T20:34:55;7.90;;;6.63;;
18893;SDS011;9579;49.488;8.226;2022-07-22T20:37:42;7.60;;;7.00;;
18893;SDS011;9579;49.488;8.226;2022-07-22T20:40:29;7.13;;;6.60;;
18893;SDS011;9579;49.488;8.226;2022-07-22T20:43:16;8.20;;;7.50;;
18893;SDS011;9579;49.488;8.226;2022-07-22T20:46:03;7.53;;;7.00;;
18893;SDS011;9579;49.488;8.226;2022-07-22T20:48:52;8.15;;;7.47;;
18893;SDS011;9579;49.488;8.226;2022-07-22T20:51:39;7.25;;;6.65;;
18893;SDS011;9579;49.488;8.226;2022-07-22T20:54:26;7.20;;;6.70;;
18893;SDS011;9579;49.488;8.226;2022-07-22T20:57:13;8.07;;;7.35;;
18893;SDS011;9579;49.488;8.226;2022-07-22T21:00:00;7.78;;;7.07;;
18893;SDS011;9579;49.488;8.226;2022-07-22T21:02:47;8.23;;;7.55;;
18893;SDS011;9579;49.488;8.226;2022-07-22T21:05:35;7.57;;;7.00;;
18893;SDS011;9579;49.488;8.226;2022-07-22T21:08:22;8.20;;;7.40;;
18893;SDS011;9579;49.488;8.226;2022-07-22T21:11:09;7.50;;;6.90;;
18893;SDS011;9579;49.488;8.226;2022-07-22T21:13:56;7.40;;;6.90;;
18893;SDS011;9579;49.488;8.226;2022-07-22T21:16:43;7.75;;;7.10;;
18893;SDS011;9579;49.488;8.226;2022-07-22T21:19:31;7.38;;;6.88;;
18893;SDS011;9579;49.488;8.226;2022-07-22T21:22:19;7.63;;;7.03;;
18893;SDS011;9579;49.488;8.226;2022-07-22T21:25:07;7.32;;;6.68;;
18893;SDS011;9579;49.488;8.226;2022-07-22T21:27:55;7.45;;;6.85;;
18893;SDS011;9579;49.488;8.226;2022-07-22T21:30:42;7.60;;;7.00;;
18893;SDS011;9579;49.488;8.226;2022-07-22T21:33:29;7.22;;;6.63;;
18893;SDS011;9579;49.488;8.226;2022-07-22T21:36:16;7.63;;;7.03;;
18893;SDS011;9579;49.488;8.226;2022-07-22T21:39:04;8.07;;;7.38;;
18893;SDS011;9579;49.488;8.226;2022-07-22T21:41:51;8.13;;;7.50;;
18893;SDS011;9579;49.488;8.226;2022-07-22T21:44:38;7.18;;;6.68;;
18893;SDS011;9579;49.488;8.226;2022-07-22T21:47:25;7.07;;;6.55;;
18893;SDS011;9579;49.488;8.226;2022-07-22T21:50:12;7.70;;;7.10;;
18893;SDS011;9579;49.488;8.226;2022-07-22T21:52:59;7.28;;;6.78;;
18893;SDS011;9579;49.488;8.226;2022-07-22T21:55:47;8.25;;;7.65;;
18893;SDS011;9579;49.488;8.226;2022-07-22T21:59:04;8.07;;;7.32;;
18893;SDS011;9579;49.488;8.226;2022-07-22T22:01:51;7.65;;;7.13;;
18893;SDS011;9579;49.488;8.226;2022-07-22T22:04:38;7.15;;;6.65;;
18893;SDS011;9579;49.488;8.226;2022-07-22T22:07:25;7.78;;;7.18;;
18893;SDS011;9579;49.488;8.226;2022-07-22T22:10:13;7.95;;;7.35;;
18893;SDS011;9579;49.488;8.226;2022-07-22T22:13:01;7.35;;;6.75;;
18893;SDS011;9579;49.488;8.226;2022-07-22T22:15:48;8.27;;;7.57;;
18893;SDS011;9579;49.488;8.226;2022-07-22T22:18:36;8.30;;;7.53;;
18893;SDS011;9579;49.488;8.226;2022-07-22T22:21:23;8.40;;;7.70;;
18893;SDS011;9579;49.488;8.226;2022-07-22T22:24:10;9.32;;;8.55;;
18893;SDS011;9579;49.488;8.226;2022-07-22T22:26:57;9.77;;;8.98;;
18893;SDS011;9579;49.488;8.226;2022-07-22T22:29:46;9.40;;;8.60;;
18893;SDS011;9579;49.488;8.226;2022-07-22T22:32:33;9.02;;;8.23;;
18893;SDS011;9579;49.488;8.226;2022-07-22T22:35:20;9.35;;;8.55;;
18893;SDS011;9579;49.488;8.226;2022-07-22T22:38:07;8.95;;;8.15;;
18893;SDS011;9579;49.488;8.226;2022-07-22T22:40:54;9.80;;;8.90;;
18893;SDS011;9579;49.488;8.226;2022-07-22T22:43:42;9.02;;;8.23;;
18893;SDS011;9579;49.488;8.226;2022-07-22T22:46:31;9.07;;;8.27;;
18893;SDS011;9579;49.488;8.226;2022-07-22T22:49:18;8.55;;;7.85;;
18893;SDS011;9579;49.488;8.226;2022-07-22T22:52:05;8.32;;;7.53;;
18893;SDS011;9579;49.488;8.226;2022-07-22T22:54:52;9.05;;;8.32;;
18893;SDS011;9579;49.488;8.226;2022-07-22T22:57:39;8.40;;;7.63;;
18893;SDS011;9579;49.488;8.226;2022-07-22T23:00:26;7.90;;;7.30;;
18893;SDS011;9579;49.488;8.226;2022-07-22T23:03:14;8.18;;;7.40;;
18893;SDS011;9579;49.488;8.226;2022-07-22T23:06:01;8.60;;;7.90;;